Time;durP1;ratioP1;P1;durP2;ratioP2;P2;SDS_P1;SDS_P2;PMS_P1;PMS_P2;Temp;Humidity;BMP_temperature;BMP_pressure;BME280_temperature;BME280_humidity;BME280_pressure;Samples;Min_cycle;Max_cycle;Signal;HPM_P1;HPM_P2
2021/06/12 00:00:18;;;;;;;9.60;7.28;;;;;;;19.67;64.50;99164.38;3604001;39;20065;-66
2021/06/12 00:02:45;;;;;;;9.75;6.80;;;;;;;19.67;65.32;99164.38;3614662;39;20043;-66
2021/06/12 00:05:14;;;;;;;10.80;7.45;;;;;;;19.65;64.95;99161.13;3615145;39;20023;-67
2021/06/12 00:07:42;;;;;;;9.13;6.65;;;;;;;19.63;65.52;99159.75;3617047;39;20040;-66
2021/06/12 00:10:14;;;;;;;7.05;6.35;;;;;;;19.68;65.22;99163.34;3616431;39;20051;-66
2021/06/12 00:12:42;;;;;;;8.30;7.15;;;;;;;19.69;64.73;99158.78;3606755;39;20077;-66
2021/06/12 00:15:11;;;;;;;7.82;7.10;;;;;;;19.60;65.12;99160.22;3615309;39;20043;-65
2021/06/12 00:17:39;;;;;;;7.60;6.90;;;;;;;19.58;65.19;99160.44;3605612;39;20052;-65
2021/06/12 00:20:08;;;;;;;8.10;7.30;;;;;;;19.57;65.46;99161.50;3611867;39;20050;-66
2021/06/12 00:22:36;;;;;;;11.25;7.18;;;;;;;19.58;65.50;99162.31;3610225;39;20056;-65
2021/06/12 00:25:06;;;;;;;8.10;7.10;;;;;;;19.54;65.61;99159.31;3610839;39;20020;-66
2021/06/12 00:27:33;;;;;;;8.00;7.20;;;;;;;19.50;65.29;99155.47;3611045;39;20357;-66
2021/06/12 00:30:00;;;;;;;9.07;7.22;;;;;;;19.46;65.85;99157.81;3609931;39;20054;-65
2021/06/12 00:32:28;;;;;;;10.25;8.13;;;;;;;19.49;65.79;99157.34;3615240;39;20040;-65
2021/06/12 00:34:55;;;;;;;9.60;7.05;;;;;;;19.55;65.33;99151.03;3605860;39;20059;-67
2021/06/12 00:37:22;;;;;;;9.40;8.35;;;;;;;19.57;65.15;99145.41;3613559;39;20084;-66
2021/06/12 00:39:49;;;;;;;7.32;6.72;;;;;;;19.58;64.82;99152.41;3613741;39;20087;-66
2021/06/12 00:42:19;;;;;;;7.38;6.72;;;;;;;19.65;64.41;99157.66;3609431;39;20078;-66
2021/06/12 00:44:46;;;;;;;8.00;7.00;;;;;;;19.41;64.64;99164.97;3609825;39;20031;-67
2021/06/12 00:47:13;;;;;;;7.38;6.68;;;;;;;19.33;65.44;99160.81;3609080;39;20405;-66
2021/06/12 00:49:40;;;;;;;8.77;7.22;;;;;;;19.35;65.52;99160.56;3600152;39;20054;-66
2021/06/12 00:52:08;;;;;;;8.68;7.82;;;;;;;19.36;65.37;99154.16;3599979;39;20051;-67
2021/06/12 00:54:36;;;;;;;8.65;7.78;;;;;;;19.31;65.29;99152.22;3614570;39;20067;-66
2021/06/12 00:57:05;;;;;;;9.13;8.27;;;;;;;19.24;65.44;99162.28;3603103;39;20087;-66
2021/06/12 00:59:33;;;;;;;8.80;7.93;;;;;;;19.16;65.49;99163.47;3612122;39;20047;-67
2021/06/12 01:02:00;;;;;;;8.20;7.40;;;;;;;19.15;66.14;99153.81;3612634;39;20055;-67
2021/06/12 01:04:28;;;;;;;7.57;6.88;;;;;;;19.23;66.00;99153.41;3610902;39;20060;-66
2021/06/12 01:06:55;;;;;;;8.10;7.30;;;;;;;19.24;65.76;99155.03;3609976;39;20051;-66
2021/06/12 01:09:23;;;;;;;7.65;6.93;;;;;;;19.22;65.74;99145.59;3610294;39;20079;-65
2021/06/12 01:11:59;;;;;;;8.52;7.18;;;;;;;19.18;65.96;99150.63;3609890;39;20051;-66
2021/06/12 01:14:31;;;;;;;8.38;7.68;;;;;;;19.09;66.17;99151.25;3600116;39;20356;-65
2021/06/12 01:17:06;;;;;;;8.50;7.65;;;;;;;19.02;66.22;99146.03;3609100;39;20055;-65
2021/06/12 01:20:05;;;;;;;7.75;7.10;;;;;;;18.75;67.49;99151.16;3599967;39;20082;-65
2021/06/12 01:22:50;;;;;;;9.05;8.15;;;;;;;18.54;67.73;99145.34;3598303;39;20067;-65
2021/06/12 01:25:28;;;;;;;10.27;7.32;;;;;;;18.50;67.96;99143.38;3609733;39;20103;-65
2021/06/12 01:28:28;;;;;;;8.80;7.90;;;;;;;18.61;67.69;99139.03;3609566;39;20075;-65
2021/06/12 01:30:57;;;;;;;8.30;7.50;;;;;;;18.66;67.23;99142.63;3600252;39;20051;-66
2021/06/12 01:33:24;;;;;;;8.50;7.65;;;;;;;18.69;66.87;99138.66;3609159;39;20054;-66
2021/06/12 01:35:54;;;;;;;9.05;8.10;;;;;;;18.69;67.08;99139.47;3600238;39;20028;-66
2021/06/12 01:38:25;;;;;;;9.32;7.78;;;;;;;18.65;66.83;99137.50;3609203;39;20043;-66
2021/06/12 01:40:55;;;;;;;8.13;7.43;;;;;;;18.60;66.86;99132.88;3600001;39;20068;-66
2021/06/12 01:43:23;;;;;;;8.13;7.43;;;;;;;18.54;67.30;99134.63;3610607;39;20058;-66
2021/06/12 01:45:51;;;;;;;8.18;7.38;;;;;;;18.52;67.31;99136.72;3611697;39;20349;-66
2021/06/12 01:48:21;;;;;;;8.35;7.65;;;;;;;18.51;67.59;99139.63;3611116;39;20370;-66
2021/06/12 01:50:49;;;;;;;8.05;7.25;;;;;;;18.49;66.88;99137.22;3601528;39;20359;-65
2021/06/12 01:53:19;;;;;;;7.72;6.93;;;;;;;18.50;67.23;99144.19;3600941;39;20055;-66
2021/06/12 01:55:48;;;;;;;8.80;8.00;;;;;;;18.43;67.21;99151.53;3610531;39;20055;-66
2021/06/12 01:58:18;;;;;;;8.20;7.50;;;;;;;18.38;67.54;99155.97;3610242;39;20084;-66
2021/06/12 02:00:46;;;;;;;8.25;7.07;;;;;;;18.34;67.67;99158.28;3610662;39;20040;-66
2021/06/12 02:03:14;;;;;;;7.45;6.85;;;;;;;18.33;67.90;99151.31;3610486;39;20070;-66
2021/06/12 02:05:44;;;;;;;7.97;7.28;;;;;;;18.37;67.97;99149.78;3610697;39;20400;-66
2021/06/12 02:08:15;;;;;;;7.97;7.28;;;;;;;18.41;67.89;99145.59;3600585;39;20032;-66
2021/06/12 02:10:46;;;;;;;8.27;7.50;;;;;;;18.39;67.75;99144.19;3610210;39;20051;-67
2021/06/12 02:13:15;;;;;;;8.02;6.93;;;;;;;18.41;67.90;99128.69;3600904;39;20083;-67
2021/06/12 02:15:44;;;;;;;7.63;6.93;;;;;;;18.43;67.56;99140.81;3610586;39;20083;-66
2021/06/12 02:18:12;;;;;;;8.20;7.53;;;;;;;18.52;67.36;99130.56;3610072;39;20039;-66
2021/06/12 02:20:41;;;;;;;8.00;7.30;;;;;;;18.52;66.95;99126.00;3609904;39;20059;-66
2021/06/12 02:23:09;;;;;;;8.25;7.55;;;;;;;18.41;67.47;99121.50;3609886;39;20076;-66
2021/06/12 02:25:37;;;;;;;9.15;8.18;;;;;;;18.35;67.34;99116.28;3609910;39;20083;-67
2021/06/12 02:28:07;;;;;;;9.20;7.43;;;;;;;18.28;67.73;99127.91;3609600;39;20090;-66
2021/06/12 02:30:39;;;;;;;8.60;7.90;;;;;;;18.26;67.89;99123.84;3609937;39;20397;-66
2021/06/12 02:33:10;;;;;;;8.27;7.57;;;;;;;18.15;67.31;99130.84;3609651;39;20179;-66
2021/06/12 02:35:37;;;;;;;8.40;7.70;;;;;;;18.00;67.82;99128.66;3609960;39;20060;-66
2021/06/12 02:38:05;;;;;;;8.30;7.50;;;;;;;17.95;68.75;99123.16;3600210;39;20062;-66
2021/06/12 02:40:33;;;;;;;9.88;8.25;;;;;;;17.94;68.34;99120.72;3614147;39;20054;-66
2021/06/12 02:43:05;;;;;;;9.05;7.45;;;;;;;17.94;68.45;99120.72;3644986;22;20072;31
2021/06/12 02:45:32;;;;;;;8.93;8.23;;;;;;;17.97;68.21;99123.75;3578572;40;19940;-60
2021/06/12 02:48:03;;;;;;;9.20;8.20;;;;;;;17.90;68.50;99132.94;3580303;40;20044;-62
2021/06/12 02:50:34;;;;;;;8.82;7.95;;;;;;;17.81;68.98;99135.16;3579410;40;20303;-60
2021/06/12 02:53:04;;;;;;;8.98;8.27;;;;;;;17.67;69.35;99141.72;3578949;40;20081;-60
2021/06/12 02:55:38;;;;;;;8.73;7.93;;;;;;;17.52;70.04;99140.31;3579379;40;20165;-61
2021/06/12 02:58:08;;;;;;;8.60;7.82;;;;;;;17.59;69.59;99145.53;3579423;40;20075;-61
2021/06/12 03:00:37;;;;;;;8.55;7.78;;;;;;;17.69;69.55;99143.13;3580009;40;20085;-61
2021/06/12 03:03:05;;;;;;;8.82;7.65;;;;;;;17.76;69.06;99140.38;3579014;40;20330;-61
2021/06/12 03:05:37;;;;;;;8.02;7.03;;;;;;;17.83;69.57;99149.91;3579242;40;20496;-62
2021/06/12 03:08:06;;;;;;;8.35;7.35;;;;;;;17.89;69.05;99142.81;3570528;40;20080;-61
2021/06/12 03:10:35;;;;;;;9.75;8.10;;;;;;;17.88;69.26;99151.06;3580221;40;20056;-61
2021/06/12 03:13:07;;;;;;;8.57;7.65;;;;;;;17.77;69.21;99147.34;3581560;40;20045;-61
2021/06/12 03:15:37;;;;;;;8.75;7.93;;;;;;;17.78;69.68;99151.63;3581241;40;20317;-61
2021/06/12 03:18:07;;;;;;;8.85;7.90;;;;;;;17.88;69.67;99149.22;3580614;40;20390;-61
2021/06/12 03:20:36;;;;;;;9.70;7.93;;;;;;;17.93;68.87;99149.34;3571576;40;20052;-61
2021/06/12 03:23:05;;;;;;;10.15;7.88;;;;;;;17.98;69.21;99154.78;3580631;40;20040;-61
2021/06/12 03:25:33;;;;;;;9.05;8.25;;;;;;;18.01;68.69;99156.22;3579937;40;20053;-61
2021/06/12 03:28:01;;;;;;;11.73;8.90;;;;;;;17.95;69.15;99152.59;3580834;40;20080;-61
2021/06/12 03:30:31;;;;;;;8.93;7.80;;;;;;;17.88;69.11;99151.06;3572555;40;20048;-60
2021/06/12 03:32:59;;;;;;;8.52;7.63;;;;;;;17.87;69.25;99146.75;3580177;40;20088;-61
2021/06/12 03:35:29;;;;;;;9.38;8.57;;;;;;;17.87;69.07;99141.41;3579820;40;20041;-61
2021/06/12 03:37:57;;;;;;;9.50;8.43;;;;;;;17.91;68.90;99146.06;3579857;40;20089;-61
2021/06/12 03:40:25;;;;;;;10.57;8.73;;;;;;;17.91;69.03;99145.25;3580383;40;20040;-61
2021/06/12 03:42:55;;;;;;;8.55;7.75;;;;;;;17.85;68.91;99146.19;3580071;40;20044;-61
2021/06/12 03:45:24;;;;;;;9.45;8.50;;;;;;;17.73;69.01;99149.63;3580960;40;20041;-61
2021/06/12 03:47:53;;;;;;;10.32;9.20;;;;;;;17.66;69.27;99158.81;3579098;40;20052;-61
2021/06/12 03:50:22;;;;;;;9.10;8.27;;;;;;;17.73;69.69;99160.31;3578918;40;20052;-61
2021/06/12 03:52:57;;;;;;;8.60;7.88;;;;;;;17.86;69.58;99161.19;3579024;40;20041;-61
2021/06/12 03:55:25;;;;;;;12.27;11.13;;;;;;;17.93;68.98;99152.00;3579402;40;20060;-61
2021/06/12 03:57:53;;;;;;;11.27;9.20;;;;;;;17.99;69.20;99168.97;3578583;40;20081;-61
2021/06/12 04:03:22;;;;;;;11.02;10.05;;;;;;;17.96;68.76;99161.41;3578731;40;20056;-61
2021/06/12 04:05:55;;;;;;;11.13;9.18;;;;;;;18.00;68.44;99171.44;3579960;40;20465;-61
2021/06/12 04:08:25;;;;;;;9.60;8.65;;;;;;;18.05;68.32;99173.41;3569986;40;20072;-61
2021/06/12 04:10:52;;;;;;;8.48;7.72;;;;;;;17.99;68.66;99177.81;3579030;40;20052;-61
2021/06/12 04:13:20;;;;;;;9.45;8.45;;;;;;;18.08;69.03;99175.59;3579240;40;20088;-61
2021/06/12 04:15:47;;;;;;;11.57;8.80;;;;;;;18.15;68.30;99175.50;3579017;40;20052;-60
2021/06/12 04:18:15;;;;;;;11.35;9.57;;;;;;;18.20;68.68;99179.09;3569093;40;20140;-61
2021/06/12 04:20:52;;;;;;;9.48;8.52;;;;;;;18.28;68.00;99175.25;3579968;40;20079;-62
2021/06/12 04:23:20;;;;;;;9.13;8.32;;;;;;;18.30;67.97;99182.03;3579441;40;20037;-62
2021/06/12 04:25:51;;;;;;;10.35;9.35;;;;;;;18.26;68.17;99180.88;3579489;40;20055;-62
2021/06/12 04:28:18;;;;;;;10.13;9.23;;;;;;;18.29;68.32;99175.06;3579356;40;20049;-61
2021/06/12 04:30:45;;;;;;;11.10;8.70;;;;;;;18.37;67.91;99175.72;3578650;40;20100;-61
2021/06/12 04:33:13;;;;;;;21.05;12.20;;;;;;;18.37;68.32;99176.56;3579068;40;20044;-61
2021/06/12 04:35:40;;;;;;;15.93;10.32;;;;;;;18.39;68.12;99177.13;3578596;40;20444;-62
2021/06/12 04:38:09;;;;;;;9.38;8.55;;;;;;;18.41;67.70;99177.72;3578402;40;20136;-62
2021/06/12 04:40:37;;;;;;;11.18;9.68;;;;;;;18.42;68.03;99181.22;3578568;40;20077;-61
2021/06/12 04:43:09;;;;;;;13.73;9.43;;;;;;;18.44;67.81;99173.75;3578571;40;20425;-61
2021/06/12 04:45:36;;;;;;;10.45;9.35;;;;;;;18.47;68.01;99181.31;3579205;40;20055;-61
2021/06/12 04:48:05;;;;;;;10.27;9.30;;;;;;;18.52;67.94;99186.78;3578225;40;20060;-61
2021/06/12 04:50:35;;;;;;;10.80;9.75;;;;;;;18.54;67.63;99190.03;3578742;40;20089;-61
2021/06/12 04:53:03;;;;;;;10.32;9.32;;;;;;;18.56;68.04;99191.41;3569832;40;20064;-61
2021/06/12 04:55:32;;;;;;;10.77;9.68;;;;;;;18.74;67.53;99187.81;3580992;40;20051;-61
2021/06/12 04:57:59;;;;;;;14.45;13.05;;;;;;;18.92;67.39;99188.72;3583096;40;20378;-61
2021/06/12 05:00:27;;;;;;;14.68;12.98;;;;;;;18.98;67.13;99199.31;3571761;40;20494;-61
2021/06/12 05:02:54;;;;;;;15.35;10.57;;;;;;;18.96;66.83;99198.72;3580608;40;20595;-61
2021/06/12 05:05:22;;;;;;;15.48;11.75;;;;;;;18.87;66.86;99194.78;3578758;40;20318;-62
2021/06/12 05:07:49;;;;;;;20.63;11.73;;;;;;;18.84;67.56;99194.44;3578430;40;20072;-61
2021/06/12 05:10:22;;;;;;;18.33;11.40;;;;;;;18.90;67.52;99201.50;3578623;40;20021;-62
2021/06/12 05:12:51;;;;;;;16.73;10.52;;;;;;;19.06;67.14;99198.09;3569004;40;20064;-61
2021/06/12 05:15:24;;;;;;;13.13;10.32;;;;;;;19.21;66.83;99192.22;3578098;40;20052;-62
2021/06/12 05:17:51;;;;;;;13.70;10.82;;;;;;;19.39;66.69;99189.34;3577898;40;20344;-60
2021/06/12 05:20:24;;;;;;;18.55;10.75;;;;;;;19.49;66.35;99194.88;3569053;40;20057;-62
2021/06/12 05:22:53;;;;;;;11.27;10.18;;;;;;;19.56;65.81;99192.06;3568960;40;20048;-61
2021/06/12 05:25:21;;;;;;;15.85;11.00;;;;;;;19.59;66.32;99185.38;3578318;40;20049;-61
2021/06/12 05:27:50;;;;;;;11.98;10.73;;;;;;;19.67;65.91;99196.56;3570155;40;20044;-61
2021/06/12 05:30:18;;;;;;;11.45;10.32;;;;;;;19.85;65.61;99189.34;3569320;40;20064;-62
2021/06/12 05:32:54;;;;;;;10.52;9.43;;;;;;;19.94;65.56;99194.06;3578631;40;20056;-62
2021/06/12 05:35:23;;;;;;;10.75;9.70;;;;;;;20.05;65.07;99184.31;3578376;40;20037;-61
2021/06/12 05:37:50;;;;;;;10.45;9.43;;;;;;;20.07;65.19;99186.75;3578384;40;20041;-60
2021/06/12 05:40:19;;;;;;;10.23;9.30;;;;;;;20.14;64.93;99190.09;3578365;40;20060;-62
2021/06/12 05:42:47;;;;;;;11.18;9.27;;;;;;;20.29;64.58;99190.31;3578310;40;20045;-61
2021/06/12 05:45:18;;;;;;;12.18;9.73;;;;;;;20.24;64.45;99193.72;3578720;40;20045;-62
2021/06/12 05:47:46;;;;;;;10.80;9.52;;;;;;;20.24;64.39;99188.34;3577311;40;20056;-62
2021/06/12 05:50:17;;;;;;;15.52;9.13;;;;;;;20.28;64.13;99184.09;3569946;40;20049;-64
2021/06/12 05:52:50;;;;;;;10.25;9.15;;;;;;;20.23;64.42;99192.09;3582179;40;20077;-62
2021/06/12 05:55:19;;;;;;;13.40;9.57;;;;;;;20.21;64.50;99188.06;3578919;40;20051;-61
2021/06/12 05:57:46;;;;;;;17.85;10.55;;;;;;;20.20;64.77;99189.91;3578017;40;20081;-62
2021/06/12 06:00:17;;;;;;;12.23;10.38;;;;;;;20.19;64.69;99196.31;3579436;40;20029;-61
2021/06/12 06:02:48;;;;;;;11.93;9.85;;;;;;;20.13;64.85;99200.00;3578811;40;20074;-62
2021/06/12 06:05:16;;;;;;;10.68;8.95;;;;;;;20.08;64.75;99207.16;3577939;40;20056;-62
2021/06/12 06:07:43;;;;;;;11.93;9.93;;;;;;;20.03;64.93;99194.47;3577735;40;20049;-61
2021/06/12 06:10:14;;;;;;;11.00;9.63;;;;;;;20.00;65.38;99198.47;3578150;40;20048;-62
2021/06/12 06:12:42;;;;;;;11.13;9.90;;;;;;;20.09;64.96;99198.06;3578444;40;20060;-62
2021/06/12 06:15:12;;;;;;;11.90;9.32;;;;;;;20.16;64.97;99212.09;3578122;40;20052;-62
2021/06/12 06:17:43;;;;;;;11.07;9.10;;;;;;;20.25;64.33;99203.41;3577759;40;20048;-62
2021/06/12 06:20:14;;;;;;;9.73;8.77;;;;;;;20.29;64.28;99206.44;3578120;40;20045;-62
2021/06/12 06:22:41;;;;;;;9.20;8.38;;;;;;;20.43;64.19;99204.19;3576870;40;20041;-62
2021/06/12 06:25:10;;;;;;;10.48;8.35;;;;;;;20.55;63.75;99212.19;3568665;40;20052;-62
2021/06/12 06:27:41;;;;;;;9.02;8.13;;;;;;;20.64;63.80;99218.75;3577564;40;20053;-62
2021/06/12 06:30:12;;;;;;;8.73;7.85;;;;;;;20.74;63.04;99214.34;3578075;40;20051;-62
2021/06/12 06:32:44;;;;;;;9.75;7.22;;;;;;;20.85;62.79;99222.50;3579437;40;20045;-62
2021/06/12 06:35:15;;;;;;;8.80;7.32;;;;;;;20.96;62.85;99222.38;3579562;40;20040;-62
2021/06/12 06:37:44;;;;;;;8.30;7.50;;;;;;;21.01;62.55;99225.13;3579474;40;20406;-61
2021/06/12 06:40:16;;;;;;;8.45;6.85;;;;;;;21.15;62.32;99219.41;3570379;40;20056;-62
2021/06/12 06:42:49;;;;;;;7.97;6.78;;;;;;;21.25;61.76;99212.25;3579361;40;20037;-62
2021/06/12 06:45:21;;;;;;;9.45;6.75;;;;;;;21.35;61.26;99214.28;3579752;40;20037;-62
2021/06/12 06:47:51;;;;;;;9.70;7.20;;;;;;;21.55;60.90;99219.03;3579280;40;20325;-62
2021/06/12 06:50:21;;;;;;;9.57;6.88;;;;;;;21.56;60.54;99217.97;3579483;40;20052;-62
2021/06/12 06:52:49;;;;;;;10.48;8.07;;;;;;;21.66;60.26;99210.00;3579283;40;20044;-62
2021/06/12 06:55:17;;;;;;;14.32;6.60;;;;;;;21.84;59.72;99210.69;3579106;40;20134;-61
2021/06/12 06:57:45;;;;;;;6.57;5.68;;;;;;;21.93;58.72;99209.16;3579015;40;20045;-61
2021/06/12 07:00:15;;;;;;;8.95;6.20;;;;;;;22.08;58.58;99209.25;3579360;40;20457;-61
2021/06/12 07:02:42;;;;;;;7.90;5.43;;;;;;;22.18;58.17;99212.06;3579191;40;20055;-61
2021/06/12 07:05:12;;;;;;;8.77;5.30;;;;;;;22.41;57.63;99205.50;3569966;40;20407;-61
2021/06/12 07:07:39;;;;;;;6.32;4.85;;;;;;;22.58;57.23;99204.53;3578995;40;20394;-60
2021/06/12 07:10:07;;;;;;;6.10;5.50;;;;;;;22.63;56.66;99221.50;3579305;40;20060;-61
2021/06/12 07:12:34;;;;;;;6.68;5.97;;;;;;;22.60;56.79;99218.53;3579117;40;20421;-61
2021/06/12 07:15:02;;;;;;;4.88;4.15;;;;;;;22.58;56.26;99223.38;3579216;40;20418;-61
2021/06/12 07:17:53;;;;;;;6.20;4.30;;;;;;;22.58;56.17;99231.47;3579692;40;20045;-62
2021/06/12 07:20:23;;;;;;;5.07;4.50;;;;;;;22.64;56.33;99231.22;3579101;40;20029;-62
2021/06/12 07:22:50;;;;;;;7.40;5.75;;;;;;;22.75;56.28;99222.13;3579184;40;20055;-61
2021/06/12 07:25:18;;;;;;;7.25;4.75;;;;;;;22.81;56.04;99222.13;3579304;40;20053;-61
2021/06/12 07:27:46;;;;;;;4.65;4.25;;;;;;;22.75;56.02;99216.72;3578839;40;20426;-62
2021/06/12 07:30:14;;;;;;;6.60;5.13;;;;;;;22.80;55.87;99212.44;3579019;40;20138;-62
2021/06/12 07:32:42;;;;;;;5.50;4.47;;;;;;;22.87;55.81;99215.72;3579434;40;20052;-62
2021/06/12 07:35:10;;;;;;;5.63;4.60;;;;;;;22.87;55.90;99213.81;3579082;40;20040;-61
2021/06/12 07:37:39;;;;;;;6.63;4.65;;;;;;;23.03;55.56;99212.03;3578727;40;20102;-62
2021/06/12 07:40:07;;;;;;;9.10;5.25;;;;;;;23.07;55.61;99202.34;3578821;40;20421;-62
2021/06/12 07:42:55;;;;;;;5.00;4.45;;;;;;;23.18;55.51;99206.66;3578850;40;20092;-63
2021/06/12 07:45:24;;;;;;;5.30;3.85;;;;;;;23.23;55.15;99204.00;3566746;40;20045;-62
2021/06/12 07:47:52;;;;;;;4.25;3.80;;;;;;;23.25;54.84;99201.03;3578639;40;20085;-63
2021/06/12 07:50:20;;;;;;;5.90;3.80;;;;;;;23.32;54.33;99203.50;3579091;40;20484;-63
2021/06/12 07:52:49;;;;;;;4.15;3.40;;;;;;;23.40;54.25;99202.97;3579834;40;20084;-62
2021/06/12 07:55:16;;;;;;;4.80;3.30;;;;;;;23.44;53.41;99196.78;3580904;40;20055;-62
2021/06/12 07:57:44;;;;;;;3.83;3.20;;;;;;;23.46;53.21;99197.28;3569575;40;20060;-62
2021/06/12 08:00:12;;;;;;;4.70;3.08;;;;;;;23.67;53.15;99198.16;3579383;40;20060;-62
2021/06/12 08:02:41;;;;;;;5.10;3.15;;;;;;;23.63;53.05;99198.94;3578461;40;20059;-62
2021/06/12 08:05:08;;;;;;;6.10;4.05;;;;;;;23.68;53.20;99191.72;3578993;40;20064;-62
2021/06/12 08:07:36;;;;;;;3.78;2.88;;;;;;;23.75;52.86;99193.31;3579029;40;20306;-62
2021/06/12 08:10:05;;;;;;;5.93;3.13;;;;;;;23.80;52.98;99186.06;3578967;40;20052;-62
2021/06/12 08:12:33;;;;;;;5.63;3.40;;;;;;;23.91;52.66;99186.84;3579042;40;20049;-62
2021/06/12 08:15:00;;;;;;;4.88;2.85;;;;;;;24.03;52.63;99171.16;3579185;40;20076;-62
2021/06/12 08:17:28;;;;;;;7.18;3.00;;;;;;;24.17;52.42;99169.53;3578714;40;20052;-62
2021/06/12 08:19:55;;;;;;;4.68;3.10;;;;;;;24.32;52.13;99178.69;3579022;40;20048;-62
2021/06/12 08:22:23;;;;;;;4.10;2.80;;;;;;;24.41;51.74;99172.50;3578720;40;20049;-62
2021/06/12 08:24:50;;;;;;;4.28;2.40;;;;;;;24.44;51.33;99166.53;3578579;40;20067;-62
2021/06/12 08:27:19;;;;;;;2.67;2.13;;;;;;;24.38;51.01;99162.22;3569224;40;20081;-62
2021/06/12 08:29:48;;;;;;;4.25;3.08;;;;;;;24.45;51.25;99167.34;3578906;40;20060;-62
2021/06/12 08:32:16;;;;;;;4.05;2.38;;;;;;;24.50;50.73;99167.34;3578674;40;20055;-62
2021/06/12 08:34:43;;;;;;;2.65;2.40;;;;;;;24.53;50.69;99166.75;3578749;40;20425;-62
2021/06/12 08:37:11;;;;;;;5.32;2.60;;;;;;;24.68;50.64;99174.84;3578624;40;20055;-62
2021/06/12 08:39:38;;;;;;;3.60;2.45;;;;;;;24.85;50.47;99174.50;3578412;40;20041;-63
2021/06/12 08:42:06;;;;;;;4.38;2.15;;;;;;;24.92;50.13;99164.19;3580214;40;20059;-63
2021/06/12 08:44:35;;;;;;;2.80;2.40;;;;;;;25.15;48.85;99154.66;3627842;22;20028;-65
2021/06/12 08:47:03;;;;;;;5.07;1.70;;;;;;;25.15;47.75;99156.53;3608548;39;20051;-65
2021/06/12 08:49:31;;;;;;;3.88;1.85;;;;;;;25.26;47.33;99159.97;3609920;39;20047;-65
2021/06/12 08:51:58;;;;;;;2.90;1.80;;;;;;;25.26;46.55;99159.97;3600757;39;20031;-66
2021/06/12 08:54:26;;;;;;;2.28;1.67;;;;;;;25.40;45.90;99172.59;3610230;39;20047;-66
2021/06/12 08:56:54;;;;;;;1.55;1.45;;;;;;;25.29;45.95;99165.63;3601523;39;20047;-65
2021/06/12 08:59:22;;;;;;;2.97;1.95;;;;;;;25.29;45.58;99156.72;3610263;39;20393;-65
2021/06/12 09:01:50;;;;;;;3.53;1.58;;;;;;;25.37;45.75;99175.06;3610469;39;20051;-65
2021/06/12 09:04:28;;;;;;;2.45;2.25;;;;;;;25.28;44.51;99168.63;3612921;39;20039;-66
2021/06/12 09:07:21;;;;;;;1.45;1.20;;;;;;;25.21;44.12;99171.63;3612829;39;20043;-65
2021/06/12 09:09:51;;;;;;;4.28;1.83;;;;;;;25.25;43.96;99171.91;3603424;39;20080;-65
2021/06/12 09:12:19;;;;;;;1.50;1.30;;;;;;;25.19;43.16;99184.66;3609733;39;20048;-65
2021/06/12 09:15:09;;;;;;;2.08;1.60;;;;;;;24.97;44.46;99182.28;3608919;39;20039;-65
2021/06/12 09:17:42;;;;;;;1.63;1.30;;;;;;;25.05;44.39;99183.59;3609063;39;20047;-65
2021/06/12 09:20:11;;;;;;;2.15;1.50;;;;;;;25.13;44.39;99191.97;3608921;39;20080;-65
2021/06/12 09:22:38;;;;;;;1.48;1.25;;;;;;;25.18;43.83;99196.53;3609007;39;20083;-65
2021/06/12 09:25:06;;;;;;;1.30;1.20;;;;;;;25.28;43.56;99199.19;3612739;39;20052;-65
2021/06/12 09:27:33;;;;;;;3.03;1.40;;;;;;;25.23;43.65;99193.81;3602269;39;20055;-67
2021/06/12 09:30:04;;;;;;;1.40;1.30;;;;;;;25.20;43.69;99197.09;3611694;39;20648;-65
2021/06/12 09:32:33;;;;;;;1.35;1.25;;;;;;;25.29;43.13;99200.00;3609479;39;20419;-67
2021/06/12 09:35:06;;;;;;;2.20;1.27;;;;;;;25.30;43.48;99183.47;3609098;39;20051;-64
2021/06/12 09:37:35;;;;;;;7.05;1.50;;;;;;;25.30;43.77;99191.59;3608843;39;20052;-65
2021/06/12 09:40:06;;;;;;;1.42;1.33;;;;;;;25.34;44.05;99189.94;3608408;39;20040;-67
2021/06/12 09:42:40;;;;;;;2.25;1.42;;;;;;;25.30;44.38;99183.47;3608730;39;20079;-65
2021/06/12 09:45:10;;;;;;;1.60;1.50;;;;;;;25.49;44.85;99185.53;3599038;39;20329;-66
2021/06/12 09:47:37;;;;;;;1.85;1.40;;;;;;;25.64;43.93;99188.97;3608457;39;20087;-65
2021/06/12 09:50:07;;;;;;;1.80;1.30;;;;;;;25.85;43.45;99195.06;3608541;39;20050;-66
2021/06/12 09:52:46;;;;;;;2.10;1.45;;;;;;;26.06;42.53;99186.75;3599124;39;20043;-66
2021/06/12 09:55:26;;;;;;;1.85;1.40;;;;;;;25.89;42.93;99182.56;3608153;39;20055;-66
2021/06/12 09:57:55;;;;;;;3.90;1.67;;;;;;;25.82;43.21;99187.47;3598732;39;20415;-66
2021/06/12 10:00:32;;;;;;;2.47;1.58;;;;;;;25.81;43.24;99195.91;3608733;39;20047;-65
2021/06/12 10:03:00;;;;;;;2.25;1.38;;;;;;;26.02;42.97;99188.41;3599976;39;20125;-66
2021/06/12 10:05:29;;;;;;;1.90;1.20;;;;;;;26.20;42.24;99176.84;3610199;39;20069;-66
2021/06/12 10:07:57;;;;;;;1.60;1.42;;;;;;;26.35;41.41;99182.13;3609829;39;20047;-66
2021/06/12 10:10:25;;;;;;;3.05;2.83;;;;;;;26.55;40.54;99173.00;3609745;39;20051;-66
2021/06/12 10:12:54;;;;;;;3.28;2.05;;;;;;;26.59;40.17;99179.44;3610122;39;20087;-66
2021/06/12 10:15:22;;;;;;;1.10;1.10;;;;;;;26.47;39.09;99183.66;3609928;39;20052;-66
2021/06/12 10:17:51;;;;;;;0.82;0.70;;;;;;;26.25;38.14;99194.94;3600544;39;20043;-64
2021/06/12 10:20:20;;;;;;;2.67;1.02;;;;;;;26.12;39.08;99189.09;3610048;39;20128;-65
2021/06/12 10:22:51;;;;;;;6.50;1.73;;;;;;;26.11;39.42;99187.50;3601017;39;20044;-65
2021/06/12 10:25:20;;;;;;;1.70;1.05;;;;;;;26.27;39.31;99198.19;3610420;39;20035;-65
2021/06/12 10:27:47;;;;;;;2.80;1.52;;;;;;;26.15;39.21;99188.53;3609787;39;20083;-65
2021/06/12 10:30:18;;;;;;;4.30;0.90;;;;;;;26.20;40.03;99176.84;3609686;39;20039;-66
2021/06/12 10:32:47;;;;;;;2.47;1.00;;;;;;;26.33;40.17;99176.19;3600488;39;20059;-66
2021/06/12 10:35:16;;;;;;;1.35;1.17;;;;;;;26.46;39.98;99173.91;3610185;39;20087;-66
2021/06/12 10:38:02;;;;;;;5.45;2.58;;;;;;;26.66;38.61;99185.34;3609666;39;20410;-66
2021/06/12 10:40:41;;;;;;;0.70;0.70;;;;;;;26.52;38.07;99170.84;3609905;39;20408;-66
2021/06/12 10:43:15;;;;;;;1.42;1.15;;;;;;;26.58;37.94;99168.91;3600433;39;20056;-66
2021/06/12 10:45:44;;;;;;;2.63;0.80;;;;;;;26.67;36.83;99172.59;3609697;39;20050;-66
2021/06/12 10:48:47;;;;;;;1.27;0.90;;;;;;;26.83;36.89;99165.88;3609512;39;20152;-66
2021/06/12 10:51:45;;;;;;;1.63;1.00;;;;;;;26.98;36.41;99172.19;3606764;39;20054;-66
2021/06/12 10:54:19;;;;;;;1.17;0.93;;;;;;;26.76;35.81;99162.69;3609612;39;20046;-66
2021/06/12 10:56:49;;;;;;;2.20;0.55;;;;;;;26.83;35.21;99162.34;3609791;39;20420;-66
2021/06/12 10:59:41;;;;;;;0.93;0.73;;;;;;;26.88;34.09;99163.09;3609433;39;20043;-66
2021/06/12 11:02:12;;;;;;;1.50;0.50;;;;;;;26.85;34.80;99157.44;3610016;39;20397;-66
2021/06/12 11:04:43;;;;;;;4.15;0.65;;;;;;;26.84;34.49;99153.91;3600106;39;20046;-67
2021/06/12 11:07:24;;;;;;;1.08;0.70;;;;;;;26.86;35.29;99153.63;3609503;39;20047;-67
2021/06/12 11:09:54;;;;;;;1.10;0.63;;;;;;;27.05;34.41;99153.66;3609776;39;20039;-66
2021/06/12 11:12:37;;;;;;;3.55;0.88;;;;;;;27.08;33.52;99156.59;3609714;39;20059;-66
2021/06/12 11:15:11;;;;;;;2.03;0.60;;;;;;;27.27;33.99;99156.63;3609868;39;20059;-64
2021/06/12 11:18:13;;;;;;;1.17;0.65;;;;;;;27.25;33.54;99150.69;3610014;39;20047;-65
2021/06/12 11:20:43;;;;;;;0.93;0.60;;;;;;;27.24;34.10;99154.50;3609670;39;20052;-66
2021/06/12 11:23:13;;;;;;;0.73;0.63;;;;;;;27.29;33.41;99173.41;3609615;39;20070;-67
2021/06/12 11:25:48;;;;;;;1.10;1.10;;;;;;;27.25;33.98;99166.16;3609612;39;20047;-65
2021/06/12 11:28:21;;;;;;;1.70;0.80;;;;;;;27.28;34.35;99154.72;3609576;39;20078;-65
2021/06/12 11:30:49;;;;;;;4.70;0.70;;;;;;;27.33;34.67;99157.34;3609646;39;20056;-65
2021/06/12 11:33:17;;;;;;;0.70;0.70;;;;;;;27.33;34.56;99154.63;3600092;39;20322;-66
2021/06/12 11:35:47;;;;;;;0.88;0.75;;;;;;;27.29;34.69;99159.03;3600266;39;20129;-66
2021/06/12 11:38:17;;;;;;;1.23;1.13;;;;;;;27.13;35.56;99159.25;3609462;39;20048;-65
2021/06/12 11:40:57;;;;;;;0.70;0.70;;;;;;;27.01;35.66;99164.28;3599848;39;20047;-66
2021/06/12 11:43:33;;;;;;;1.77;0.60;;;;;;;27.08;35.44;99156.59;3600635;39;20039;-68
2021/06/12 11:46:02;;;;;;;1.20;0.88;;;;;;;27.15;35.78;99162.50;3609379;39;20061;-66
2021/06/12 11:48:30;;;;;;;1.38;0.70;;;;;;;27.31;36.15;99173.94;3599542;39;20044;-67